createdAt,value
2018-04-02T00:00:55.500Z,7.87
2018-04-02T00:01:55.469Z,7.85
2018-04-02T00:02:55.472Z,7.84
2018-04-02T00:03:55.455Z,7.79
2018-04-02T00:04:55.409Z,7.79
2018-04-02T00:05:55.398Z,7.77
2018-04-02T00:06:55.395Z,7.79
2018-04-02T00:07:55.386Z,7.79
2018-04-02T00:08:55.365Z,7.79
2018-04-02T00:09:55.324Z,7.82
2018-04-02T00:10:55.311Z,7.79
2018-04-02T00:11:55.291Z,7.74
2018-04-02T00:12:55.288Z,7.67
2018-04-02T00:13:55.257Z,7.63
2018-04-02T00:14:55.242Z,7.59
2018-04-02T00:15:55.229Z,7.50
2018-04-02T00:16:55.177Z,7.38
2018-04-02T00:17:55.172Z,7.37
2018-04-02T00:18:55.146Z,7.31
2018-04-02T00:19:55.129Z,7.40
2018-04-02T00:20:55.104Z,7.47
2018-04-02T00:21:55.082Z,7.45
2018-04-02T00:22:55.072Z,7.42
2018-04-02T00:23:55.054Z,7.37
2018-04-02T00:24:55.025Z,7.38
2018-04-02T00:25:55.055Z,7.37
2018-04-02T00:26:55.006Z,7.44
2018-04-02T00:27:54.969Z,7.38
2018-04-02T00:28:54.947Z,7.42
2018-04-02T00:29:54.959Z,7.41
2018-04-02T00:30:54.960Z,7.26
2018-04-02T00:31:54.935Z,7.34
2018-04-02T00:32:54.870Z,7.31
2018-04-02T00:33:54.938Z,7.26
2018-04-02T00:34:54.847Z,7.22
2018-04-02T00:35:54.832Z,7.26
2018-04-02T00:36:54.791Z,7.24
2018-04-02T00:37:54.772Z,7.19
2018-04-02T00:38:54.769Z,7.20
2018-04-02T00:39:54.739Z,7.26
2018-04-02T00:40:54.714Z,7.22
2018-04-02T00:41:54.700Z,7.26
2018-04-02T00:42:54.692Z,7.24
2018-04-02T00:43:54.694Z,7.27
2018-04-02T00:44:54.637Z,7.27
2018-04-02T00:45:54.624Z,7.20
2018-04-02T00:46:54.606Z,7.23
2018-04-02T00:47:54.579Z,7.27
2018-04-02T00:48:54.559Z,7.24
2018-04-02T00:49:54.550Z,7.22
2018-04-02T00:50:54.532Z,7.31
2018-04-02T00:51:54.498Z,7.27
2018-04-02T00:52:54.482Z,7.22
2018-04-02T00:53:54.477Z,7.27
2018-04-02T00:54:54.452Z,7.22
2018-04-02T00:55:54.423Z,7.22
2018-04-02T00:56:54.407Z,7.17
2018-04-02T00:57:54.389Z,7.19
2018-04-02T00:58:54.372Z,7.16
2018-04-02T00:59:54.344Z,7.16
2018-04-02T01:00:54.331Z,7.23
2018-04-02T01:01:54.325Z,7.22
2018-04-02T01:02:54.321Z,7.12
2018-04-02T01:03:54.270Z,7.15
2018-04-02T01:04:54.249Z,7.13
2018-04-02T01:05:54.247Z,7.13
2018-04-02T01:06:54.229Z,7.12
2018-04-02T01:07:54.193Z,7.02
2018-04-02T01:08:54.168Z,7.05
2018-04-02T01:09:54.158Z,7.05
2018-04-02T01:10:54.139Z,6.97
2018-04-02T01:11:54.112Z,6.98
2018-04-02T01:12:54.096Z,6.90
2018-04-02T01:13:54.076Z,6.94
2018-04-02T01:14:54.054Z,6.91
2018-04-02T01:15:54.038Z,6.89
2018-04-02T01:16:54.047Z,6.89
2018-04-02T01:17:54.020Z,6.91
2018-04-02T01:18:53.975Z,6.91
2018-04-02T01:19:53.954Z,6.87
2018-04-02T01:20:53.941Z,6.94
2018-04-02T01:21:53.935Z,6.97
2018-04-02T01:22:53.899Z,6.83
2018-04-02T01:23:53.876Z,6.81
2018-04-02T01:24:53.861Z,6.89
2018-04-02T01:25:53.841Z,6.91
2018-04-02T01:26:53.843Z,6.90
2018-04-02T01:27:53.798Z,6.90
2018-04-02T01:28:53.778Z,7.02
2018-04-02T01:29:53.790Z,7.04
2018-04-02T01:30:53.747Z,7.15
2018-04-02T01:31:53.737Z,7.19
2018-04-02T01:32:53.710Z,7.22
2018-04-02T01:33:53.689Z,7.34
2018-04-02T01:34:53.665Z,7.37
2018-04-02T01:35:53.642Z,7.31
2018-04-02T01:36:53.630Z,7.34
2018-04-02T01:37:53.609Z,7.31
2018-04-02T01:38:53.587Z,7.23
2018-04-02T01:39:53.565Z,7.16
2018-04-02T01:40:53.549Z,7.16
2018-04-02T01:41:53.532Z,7.23
2018-04-02T01:42:53.510Z,7.20
2018-04-02T01:43:53.486Z,7.24
2018-04-02T01:44:53.475Z,7.26
2018-04-02T01:45:53.468Z,7.29
2018-04-02T01:46:53.448Z,7.34
2018-04-02T01:47:53.410Z,7.45
2018-04-02T01:48:53.414Z,7.38
2018-04-02T01:49:53.383Z,7.31
2018-04-02T01:50:53.353Z,7.34
2018-04-02T01:51:53.333Z,7.29
2018-04-02T01:52:53.324Z,7.34
2018-04-02T01:53:53.313Z,7.32
2018-04-02T01:54:53.272Z,7.27
2018-04-02T01:55:53.252Z,7.35
2018-04-02T01:56:53.252Z,7.37
2018-04-02T01:57:53.232Z,7.32
2018-04-02T01:58:53.197Z,7.44
2018-04-02T01:59:53.180Z,7.41
2018-04-02T02:00:53.168Z,7.47
2018-04-02T02:01:53.152Z,7.44
2018-04-02T02:02:53.117Z,7.53
2018-04-02T02:03:53.106Z,7.52
2018-04-02T02:04:53.089Z,7.41
2018-04-02T02:05:53.063Z,7.42
2018-04-02T02:06:53.043Z,7.56
2018-04-02T02:07:53.036Z,7.56
2018-04-02T02:08:53.007Z,7.52
2018-04-02T02:09:52.991Z,7.63
2018-04-02T02:10:52.964Z,7.62
2018-04-02T02:11:52.970Z,7.62
2018-04-02T02:12:52.945Z,7.72
2018-04-02T02:13:52.985Z,7.69
2018-04-02T02:14:52.884Z,7.71
2018-04-02T02:15:52.867Z,7.67
2018-04-02T02:16:52.864Z,7.75
2018-04-02T02:17:52.844Z,7.72
2018-04-02T02:18:52.805Z,7.78
2018-04-02T02:19:52.794Z,7.74
2018-04-02T02:20:52.781Z,7.72
2018-04-02T02:21:52.767Z,7.67
2018-04-02T02:22:52.732Z,7.71
2018-04-02T02:23:52.715Z,7.63
2018-04-02T02:24:52.697Z,7.62
2018-04-02T02:25:52.701Z,7.56
2018-04-02T02:26:52.665Z,7.55
2018-04-02T02:27:52.635Z,7.47
2018-04-02T02:28:52.619Z,7.44
2018-04-02T02:29:52.595Z,7.41
2018-04-02T02:30:52.577Z,7.41
2018-04-02T02:31:52.555Z,7.47
2018-04-02T02:32:52.544Z,7.38
2018-04-02T02:33:52.537Z,7.38
2018-04-02T02:34:52.498Z,7.40
2018-04-02T02:35:52.495Z,7.40
2018-04-02T02:36:52.480Z,7.44
2018-04-02T02:37:52.442Z,7.49
2018-04-02T02:38:52.424Z,7.42
2018-04-02T02:39:52.418Z,7.42
2018-04-02T02:40:52.399Z,7.40
2018-04-02T02:41:52.363Z,7.35
2018-04-02T02:42:52.349Z,7.38
2018-04-02T02:43:52.327Z,7.35
2018-04-02T02:44:52.319Z,7.32
2018-04-02T02:45:52.341Z,7.32
2018-04-02T02:46:52.265Z,7.37
2018-04-02T02:47:52.255Z,7.37
2018-04-02T02:48:52.246Z,7.40
2018-04-02T02:49:52.207Z,7.42
2018-04-02T02:50:52.189Z,7.41
2018-04-02T02:51:52.179Z,7.37
2018-04-02T02:52:52.183Z,7.58
2018-04-02T02:53:52.130Z,7.56
2018-04-02T02:54:52.113Z,7.55
2018-04-02T02:55:52.101Z,7.58
2018-04-02T02:56:52.083Z,7.60
2018-04-02T02:57:52.053Z,7.56
2018-04-02T02:58:52.042Z,7.53
2018-04-02T02:59:52.030Z,7.40
2018-04-02T03:00:52.002Z,7.44
2018-04-02T03:01:51.980Z,7.41
2018-04-02T03:02:51.962Z,7.41
2018-04-02T03:03:51.956Z,7.41
2018-04-02T03:04:51.924Z,7.49
2018-04-02T03:05:51.919Z,7.38
2018-04-02T03:06:51.926Z,7.40
2018-04-02T03:07:51.878Z,7.41
2018-04-02T03:08:51.849Z,7.41
2018-04-02T03:09:51.825Z,7.42
2018-04-02T03:10:51.812Z,7.47
2018-04-02T03:11:51.804Z,7.45
2018-04-02T03:12:51.768Z,7.42
2018-04-02T03:13:51.781Z,7.47
2018-04-02T03:14:51.759Z,7.44
2018-04-02T03:15:51.711Z,7.44
2018-04-02T03:16:51.693Z,7.42
2018-04-02T03:17:51.667Z,7.45
2018-04-02T03:18:51.656Z,7.49
2018-04-02T03:19:51.757Z,7.44
2018-04-02T03:20:51.617Z,7.35
2018-04-02T03:21:51.592Z,7.45
2018-04-02T03:22:51.584Z,7.47
2018-04-02T03:23:51.565Z,7.44
2018-04-02T03:24:51.545Z,7.55
2018-04-02T03:25:51.547Z,7.52
2018-04-02T03:26:51.513Z,7.62
2018-04-02T03:27:51.475Z,7.56
2018-04-02T03:28:51.457Z,7.62
2018-04-02T03:29:51.433Z,7.47
2018-04-02T03:30:51.432Z,7.59
2018-04-02T03:31:51.402Z,7.60
2018-04-02T03:32:51.383Z,7.66
2018-04-02T03:33:51.360Z,7.56
2018-04-02T03:34:51.346Z,7.53
2018-04-02T03:35:51.324Z,7.53
2018-04-02T03:36:51.326Z,7.53
2018-04-02T03:37:51.317Z,7.47
2018-04-02T03:38:51.272Z,7.45
2018-04-02T03:39:51.332Z,7.35
2018-04-02T03:40:51.227Z,7.32
2018-04-02T03:41:51.236Z,7.37
2018-04-02T03:42:51.194Z,7.35
2018-04-02T03:43:51.176Z,7.35
2018-04-02T03:44:51.164Z,7.34
2018-04-02T03:45:51.135Z,7.26
2018-04-02T03:46:51.117Z,7.29
2018-04-02T03:47:51.089Z,7.35
2018-04-02T03:48:51.089Z,7.35
2018-04-02T03:49:51.058Z,7.37
2018-04-02T03:50:51.034Z,7.38
2018-04-02T03:51:51.015Z,7.41
2018-04-02T03:52:50.994Z,7.40
2018-04-02T03:53:50.980Z,7.42
2018-04-02T03:54:50.960Z,7.45
2018-04-02T03:55:50.930Z,7.34
2018-04-02T03:56:50.932Z,7.34
2018-04-02T03:57:50.897Z,7.32
2018-04-02T03:58:50.895Z,7.38
2018-04-02T03:59:50.857Z,7.38
2018-04-02T04:00:50.839Z,7.38
2018-04-02T04:01:50.816Z,7.41
2018-04-02T04:02:50.802Z,7.34
2018-04-02T04:03:50.796Z,7.26
2018-04-02T04:04:50.769Z,7.22
2018-04-02T04:05:50.737Z,7.12
2018-04-02T04:06:50.717Z,7.13
2018-04-02T04:07:50.705Z,7.12
2018-04-02T04:08:50.693Z,7.13
2018-04-02T04:09:50.664Z,7.02
2018-04-02T04:10:50.642Z,7.04
2018-04-02T04:11:50.625Z,7.02
2018-04-02T04:12:50.604Z,7.09
2018-04-02T04:13:50.633Z,7.04
2018-04-02T04:14:50.565Z,7.16
2018-04-02T04:15:50.555Z,7.15
2018-04-02T04:16:50.535Z,7.12
2018-04-02T04:17:50.516Z,7.26
2018-04-02T04:18:50.497Z,7.22
2018-04-02T04:19:50.471Z,7.26
2018-04-02T04:20:50.503Z,7.15
2018-04-02T04:21:50.440Z,7.17
2018-04-02T04:22:50.419Z,7.23
2018-04-02T04:23:50.396Z,7.19
2018-04-02T04:24:50.382Z,7.22
2018-04-02T04:25:50.352Z,7.20
2018-04-02T04:26:50.332Z,7.23
2018-04-02T04:27:50.314Z,7.22
2018-04-02T04:28:50.300Z,7.22
2018-04-02T04:29:50.273Z,7.26
2018-04-02T04:30:50.256Z,7.19
2018-04-02T04:31:50.245Z,7.24
2018-04-02T04:32:50.212Z,7.17
2018-04-02T04:33:50.191Z,7.24
2018-04-02T04:34:50.172Z,7.20
2018-04-02T04:35:50.175Z,7.26
2018-04-02T04:36:50.146Z,7.22
2018-04-02T04:37:50.114Z,7.24
2018-04-02T04:38:50.123Z,7.19
2018-04-02T04:39:50.076Z,7.09
2018-04-02T04:40:50.068Z,7.16
2018-04-02T04:41:50.037Z,7.08
2018-04-02T04:42:50.025Z,7.17
2018-04-02T04:43:50.005Z,7.12
2018-04-02T04:44:49.978Z,7.16
2018-04-02T04:45:49.963Z,7.15
2018-04-02T04:46:49.965Z,7.19
2018-04-02T04:47:49.939Z,7.20
2018-04-02T04:48:49.900Z,7.24
2018-04-02T04:49:49.883Z,7.22
2018-04-02T04:50:49.896Z,7.24
2018-04-02T04:51:49.870Z,7.26
2018-04-02T04:52:49.824Z,7.20
2018-04-02T04:53:49.827Z,7.22
2018-04-02T04:54:49.789Z,7.20
2018-04-02T04:55:49.792Z,7.22
2018-04-02T04:56:49.766Z,7.23
2018-04-02T04:57:49.735Z,7.27
2018-04-02T04:58:49.710Z,7.27
2018-04-02T04:59:49.697Z,7.17
2018-04-02T05:00:49.671Z,7.15
2018-04-02T05:01:49.680Z,7.12
2018-04-02T05:02:49.662Z,7.08
2018-04-02T05:03:49.622Z,7.07
2018-04-02T05:04:49.589Z,7.15
2018-04-02T05:05:49.581Z,7.07
2018-04-02T05:06:49.595Z,7.04
2018-04-02T05:07:49.564Z,7.09
2018-04-02T05:08:49.524Z,7.08
2018-04-02T05:09:49.507Z,7.16
2018-04-02T05:10:49.491Z,7.13
2018-04-02T05:11:49.458Z,7.05
2018-04-02T05:12:49.487Z,7.12
2018-04-02T05:13:49.420Z,7.02
2018-04-02T05:14:49.398Z,7.01
2018-04-02T05:15:49.394Z,6.99
2018-04-02T05:16:49.358Z,6.95
2018-04-02T05:17:49.347Z,6.83
2018-04-02T05:18:49.325Z,6.86
2018-04-02T05:19:49.327Z,6.80
2018-04-02T05:20:49.300Z,6.86
2018-04-02T05:21:49.267Z,6.90
2018-04-02T05:22:49.284Z,6.94
2018-04-02T05:23:49.246Z,6.90
2018-04-02T05:24:49.205Z,6.94
2018-04-02T05:25:49.189Z,6.97
2018-04-02T05:26:49.183Z,7.05
2018-04-02T05:27:49.150Z,6.97
2018-04-02T05:28:49.120Z,7.01
2018-04-02T05:29:49.131Z,7.01
2018-04-02T05:30:49.083Z,7.01
2018-04-02T05:31:49.079Z,7.05
2018-04-02T05:32:49.047Z,7.05
2018-04-02T05:33:49.034Z,7.09
2018-04-02T05:34:49.024Z,7.02
2018-04-02T05:35:48.992Z,6.94
2018-04-02T05:36:48.964Z,6.81
2018-04-02T05:37:48.959Z,6.97
2018-04-02T05:38:48.944Z,6.89
2018-04-02T05:39:48.910Z,6.97
2018-04-02T05:40:48.894Z,7.04
2018-04-02T05:41:48.886Z,7.01
2018-04-02T05:42:48.872Z,7.12
2018-04-02T05:43:48.832Z,6.97
2018-04-02T05:44:48.816Z,7.15
2018-04-02T05:45:48.807Z,7.05
2018-04-02T05:46:48.786Z,7.04
2018-04-02T05:47:48.776Z,7.12
2018-04-02T05:48:48.730Z,7.08
2018-04-02T05:49:48.709Z,7.19
2018-04-02T05:50:48.712Z,7.13
2018-04-02T05:51:48.688Z,7.17
2018-04-02T05:52:48.654Z,7.13
2018-04-02T05:53:48.647Z,7.13
2018-04-02T05:54:48.642Z,7.13
2018-04-02T05:55:48.610Z,7.16
2018-04-02T05:56:48.589Z,7.07
2018-04-02T05:57:48.610Z,7.12
2018-04-02T05:58:48.549Z,7.15
2018-04-02T05:59:48.540Z,7.17
2018-04-02T06:00:48.500Z,7.17
2018-04-02T06:01:48.479Z,7.24
2018-04-02T06:02:48.455Z,7.20
2018-04-02T06:03:48.443Z,7.23
2018-04-02T06:04:48.424Z,7.31
2018-04-02T06:05:48.433Z,7.41
2018-04-02T06:06:48.416Z,7.31
2018-04-02T06:07:48.356Z,7.40
2018-04-02T06:08:48.341Z,7.41
2018-04-02T06:09:48.321Z,7.47
2018-04-02T06:10:48.312Z,7.49
2018-04-02T06:11:48.300Z,7.62
2018-04-02T06:12:48.290Z,7.67
2018-04-02T06:13:48.281Z,7.63
2018-04-02T06:14:48.223Z,7.60
2018-04-02T06:15:48.209Z,7.47
2018-04-02T06:16:48.187Z,7.50
2018-04-02T06:17:48.206Z,7.42
2018-04-02T06:18:48.184Z,7.50
2018-04-02T06:19:48.148Z,7.44
2018-04-02T06:20:48.136Z,7.42
2018-04-02T06:21:48.096Z,7.53
2018-04-02T06:22:48.097Z,7.66
2018-04-02T06:23:48.067Z,7.75
2018-04-02T06:24:48.036Z,7.78
2018-04-02T06:25:48.031Z,7.87
2018-04-02T06:26:48.003Z,7.90
2018-04-02T06:27:48.029Z,7.87
2018-04-02T06:28:47.961Z,7.89
2018-04-02T06:29:47.943Z,7.67
2018-04-02T06:30:47.924Z,7.63
2018-04-02T06:31:47.903Z,7.60
2018-04-02T06:32:47.875Z,7.52
2018-04-02T06:33:47.858Z,7.63
2018-04-02T06:34:47.841Z,7.66
2018-04-02T06:35:47.846Z,7.60
2018-04-02T06:36:47.810Z,7.56
2018-04-02T06:37:47.795Z,7.60
2018-04-02T06:38:47.799Z,7.59
2018-04-02T06:39:47.748Z,7.56
2018-04-02T06:40:47.748Z,7.69
2018-04-02T06:41:47.706Z,7.69
2018-04-02T06:42:47.686Z,7.75
2018-04-02T06:43:47.679Z,7.79
2018-04-02T06:44:47.657Z,7.89
2018-04-02T06:45:47.633Z,7.90
2018-04-02T06:46:47.653Z,7.96
2018-04-02T06:47:47.624Z,7.90
2018-04-02T06:48:47.607Z,7.87
2018-04-02T06:49:47.557Z,7.79
2018-04-02T06:50:47.547Z,7.81
2018-04-02T06:51:47.525Z,7.84
2018-04-02T06:52:47.497Z,7.92
2018-04-02T06:53:47.517Z,7.87
2018-04-02T06:54:47.484Z,7.81
2018-04-02T06:55:47.493Z,8.00
2018-04-02T06:56:47.430Z,8.00
2018-04-02T06:57:47.408Z,8.07
2018-04-02T06:58:47.411Z,8.08
2018-04-02T06:59:47.410Z,8.15
2018-04-02T07:00:47.352Z,8.28
2018-04-02T07:01:47.349Z,8.33
2018-04-02T07:02:47.312Z,8.35
2018-04-02T07:03:47.322Z,8.33
2018-04-02T07:04:47.342Z,8.42
2018-04-02T07:05:47.260Z,8.51
2018-04-02T07:06:47.251Z,8.50
2018-04-02T07:07:47.217Z,8.63
2018-04-02T07:08:47.207Z,8.62
2018-04-02T07:09:47.207Z,8.57
2018-04-02T07:10:47.171Z,8.65
2018-04-02T07:11:47.146Z,8.60
2018-04-02T07:12:47.128Z,8.55
2018-04-02T07:13:47.130Z,8.69
2018-04-02T07:14:47.095Z,8.69
2018-04-02T07:15:47.080Z,8.76
2018-04-02T07:16:47.094Z,8.86
2018-04-02T07:17:47.032Z,8.91
2018-04-02T07:18:47.022Z,8.79
2018-04-02T07:19:47.017Z,8.86
2018-04-02T07:20:47.019Z,8.84
2018-04-02T07:21:46.968Z,8.79
2018-04-02T07:22:46.960Z,8.78
2018-04-02T07:23:46.945Z,8.73
2018-04-02T07:24:46.920Z,8.66
2018-04-02T07:25:46.901Z,8.75
2018-04-02T07:26:46.896Z,8.66
2018-04-02T07:27:46.863Z,8.68
2018-04-02T07:28:46.837Z,8.57
2018-04-02T07:29:46.827Z,8.57
2018-04-02T07:30:46.811Z,8.54
2018-04-02T07:31:46.796Z,8.48
2018-04-02T07:32:46.777Z,8.50
2018-04-02T07:33:46.786Z,8.63
2018-04-02T07:34:46.731Z,8.54
2018-04-02T07:35:46.725Z,8.58
2018-04-02T07:36:46.698Z,8.62
2018-04-02T07:37:46.672Z,8.48
2018-04-02T07:38:46.668Z,8.68
2018-04-02T07:39:46.645Z,8.73
2018-04-02T07:40:46.612Z,8.87
2018-04-02T07:41:46.611Z,9.02
2018-04-02T07:42:46.588Z,9.18
2018-04-02T07:43:46.566Z,9.25
2018-04-02T07:44:46.546Z,9.27
2018-04-02T07:45:46.546Z,9.35
2018-04-02T07:46:46.567Z,9.30
2018-04-02T07:47:46.504Z,9.39
2018-04-02T07:48:46.483Z,9.25
2018-04-02T07:49:46.464Z,9.39
2018-04-02T07:50:46.440Z,9.56
2018-04-02T07:51:46.472Z,9.58
2018-04-02T07:52:46.411Z,9.70
2018-04-02T07:53:46.392Z,9.81
2018-04-02T07:54:46.417Z,9.99
2018-04-02T07:55:46.365Z,10.09
2018-04-02T07:56:46.348Z,10.21
2018-04-02T07:57:46.313Z,10.07
2018-04-02T07:58:46.323Z,10.01
2018-04-02T07:59:46.316Z,9.99
2018-04-02T08:00:46.259Z,10.01
2018-04-02T08:01:46.251Z,10.03
2018-04-02T08:02:46.270Z,10.09
2018-04-02T08:03:46.251Z,10.10
2018-04-02T08:04:46.198Z,10.19
2018-04-02T08:05:46.176Z,10.21
2018-04-02T08:06:46.210Z,10.32
2018-04-02T08:07:46.146Z,10.39
2018-04-02T08:08:46.132Z,10.55
2018-04-02T08:09:46.111Z,10.74
2018-04-02T08:10:46.132Z,10.81
2018-04-02T08:11:46.076Z,11.06
2018-04-02T08:12:46.061Z,11.25
2018-04-02T08:13:46.056Z,11.21
2018-04-02T08:14:46.055Z,11.17
2018-04-02T08:15:46.056Z,10.98
2018-04-02T08:16:45.993Z,10.76
2018-04-02T08:17:45.975Z,10.78
2018-04-02T08:18:45.968Z,10.68
2018-04-02T08:19:45.981Z,10.70
2018-04-02T08:20:45.931Z,10.99
2018-04-02T08:21:45.907Z,10.99
2018-04-02T08:22:45.905Z,11.19
2018-04-02T08:23:45.896Z,11.14
2018-04-02T08:24:45.907Z,11.03
2018-04-02T08:25:45.861Z,10.99
2018-04-02T08:26:45.845Z,11.06
2018-04-02T08:27:45.815Z,11.06
2018-04-02T08:28:45.807Z,11.16
2018-04-02T08:29:45.784Z,11.25
2018-04-02T08:30:45.761Z,11.38
2018-04-02T08:31:45.768Z,11.35
2018-04-02T08:32:45.730Z,11.25
2018-04-02T08:33:45.706Z,11.01
2018-04-02T08:34:45.702Z,10.96
2018-04-02T08:35:45.697Z,10.86
2018-04-02T08:36:45.655Z,10.86
2018-04-02T08:37:45.679Z,10.94
2018-04-02T08:38:45.671Z,11.02
2018-04-02T08:39:45.661Z,11.13
2018-04-02T08:40:45.600Z,11.35
2018-04-02T08:41:45.587Z,11.41
2018-04-02T08:42:45.591Z,11.47
2018-04-02T08:43:45.565Z,11.47
2018-04-02T08:44:45.541Z,11.61
2018-04-02T08:45:45.536Z,11.59
2018-04-02T08:46:45.525Z,11.54
2018-04-02T08:47:45.502Z,11.67
2018-04-02T08:48:45.473Z,11.75
2018-04-02T08:49:45.454Z,11.77
2018-04-02T08:50:45.455Z,11.77
2018-04-02T08:51:45.421Z,11.68
2018-04-02T08:52:45.398Z,11.65
2018-04-02T08:53:45.417Z,11.68
2018-04-02T08:54:45.376Z,11.56
2018-04-02T08:55:45.372Z,11.44
2018-04-02T08:56:45.450Z,11.36
2018-04-02T08:57:45.344Z,11.38
2018-04-02T08:58:45.352Z,11.41
2018-04-02T08:59:45.314Z,11.61
2018-04-02T09:00:45.361Z,11.68
2018-04-02T09:01:45.268Z,11.85
2018-04-02T09:02:45.257Z,11.77
2018-04-02T09:03:45.275Z,11.62
2018-04-02T09:04:45.249Z,11.71
2018-04-02T09:05:45.211Z,11.75
2018-04-02T09:06:45.189Z,11.70
2018-04-02T09:07:45.188Z,11.62
2018-04-02T09:08:45.159Z,11.61
2018-04-02T09:09:45.137Z,11.53
2018-04-02T09:10:45.143Z,11.56
2018-04-02T09:11:45.114Z,11.67
2018-04-02T09:12:45.121Z,11.65
2018-04-02T09:13:45.081Z,11.83
2018-04-02T09:14:45.080Z,11.75
2018-04-02T09:15:45.065Z,11.89
2018-04-02T09:16:45.037Z,12.01
2018-04-02T09:17:45.039Z,12.01
2018-04-02T09:18:44.997Z,12.09
2018-04-02T09:19:44.983Z,11.99
2018-04-02T09:20:44.979Z,12.11
2018-04-02T09:21:44.943Z,11.94
2018-04-02T09:22:44.954Z,11.97
2018-04-02T09:23:44.938Z,11.93
2018-04-02T09:24:44.963Z,11.97
2018-04-02T09:25:44.888Z,12.11
2018-04-02T09:26:44.936Z,12.04
2018-04-02T09:27:44.885Z,12.09
2018-04-02T09:28:44.848Z,11.96
2018-04-02T09:29:44.833Z,11.99
2018-04-02T09:30:44.814Z,11.87
2018-04-02T09:31:44.815Z,11.77
2018-04-02T09:32:44.846Z,11.57
2018-04-02T09:33:44.783Z,11.62
2018-04-02T09:34:44.760Z,11.67
2018-04-02T09:35:44.739Z,11.59
2018-04-02T09:36:44.742Z,11.53
2018-04-02T09:37:44.697Z,11.49
2018-04-02T09:38:44.693Z,11.72
2018-04-02T09:39:44.687Z,11.72
2018-04-02T09:40:44.690Z,11.80
2018-04-02T09:41:44.652Z,11.93
2018-04-02T09:42:44.660Z,11.77
2018-04-02T09:43:44.614Z,11.85
2018-04-02T09:44:44.609Z,11.99
2018-04-02T09:45:44.592Z,12.15
2018-04-02T09:46:44.559Z,12.21
2018-04-02T09:47:44.565Z,12.19
2018-04-02T09:48:44.559Z,12.11
2018-04-02T09:49:44.539Z,12.15
2018-04-02T09:50:44.512Z,12.29
2018-04-02T09:51:44.482Z,12.44
2018-04-02T09:52:44.478Z,12.57
2018-04-02T09:53:44.453Z,12.70
2018-04-02T09:54:44.458Z,12.49
2018-04-02T09:55:44.430Z,12.39
2018-04-02T09:56:44.428Z,12.38
2018-04-02T09:57:44.401Z,12.29
2018-04-02T09:58:44.403Z,12.21
2018-04-02T09:59:44.365Z,12.24
2018-04-02T10:00:44.364Z,12.12
2018-04-02T10:01:44.337Z,11.99
2018-04-02T10:02:44.397Z,11.85
2018-04-02T10:03:44.308Z,11.89
2018-04-02T10:04:44.473Z,12.11
2018-04-02T10:05:44.305Z,12.24
2018-04-02T10:06:44.258Z,12.38
2018-04-02T10:07:44.275Z,12.49
2018-04-02T10:08:44.254Z,12.60
2018-04-02T10:09:44.247Z,12.60
2018-04-02T10:10:44.196Z,12.59
2018-04-02T10:11:44.178Z,12.56
2018-04-02T10:12:44.173Z,12.48
2018-04-02T10:13:44.167Z,12.38
2018-04-02T10:14:44.146Z,12.52
2018-04-02T10:15:44.124Z,12.41
2018-04-02T10:16:44.120Z,12.39
2018-04-02T10:17:44.116Z,12.42
2018-04-02T10:18:44.077Z,12.48
2018-04-02T10:19:44.084Z,12.71
2018-04-02T10:20:44.116Z,12.63
2018-04-02T10:21:44.076Z,12.63
2018-04-02T10:22:44.049Z,12.45
2018-04-02T10:23:44.017Z,12.46
2018-04-02T10:24:43.980Z,12.45
2018-04-02T10:25:43.964Z,12.54
2018-04-02T10:26:43.975Z,12.71
2018-04-02T10:27:43.933Z,12.78
2018-04-02T10:28:43.930Z,13.02
2018-04-02T10:29:43.923Z,13.12
2018-04-02T10:30:43.914Z,13.27
2018-04-02T10:31:43.883Z,13.36
2018-04-02T10:32:43.881Z,13.30
2018-04-02T10:33:43.853Z,13.33
2018-04-02T10:34:43.861Z,13.32
2018-04-02T10:35:43.822Z,13.12
2018-04-02T10:36:43.810Z,12.81
2018-04-02T10:37:43.802Z,12.82
2018-04-02T10:38:43.780Z,12.82
2018-04-02T10:39:43.767Z,12.92
2018-04-02T10:40:43.755Z,12.93
2018-04-02T10:41:43.737Z,12.95
2018-04-02T10:42:43.717Z,12.97
2018-04-02T10:43:43.729Z,13.02
2018-04-02T10:44:43.679Z,13.15
2018-04-02T10:45:43.680Z,13.33
2018-04-02T10:46:43.673Z,13.24
2018-04-02T10:47:43.654Z,13.20
2018-04-02T10:48:43.680Z,13.06
2018-04-02T10:49:43.625Z,12.88
2018-04-02T10:50:43.605Z,12.95
2018-04-02T10:51:43.716Z,13.06
2018-04-02T10:52:43.560Z,13.15
2018-04-02T10:53:43.556Z,13.11
2018-04-02T10:54:43.549Z,12.96
2018-04-02T10:55:43.524Z,12.99
2018-04-02T10:56:43.512Z,13.06
2018-04-02T10:57:43.500Z,13.09
2018-04-02T10:58:43.567Z,13.04
2018-04-02T10:59:43.582Z,13.07
2018-04-02T11:00:43.439Z,13.21
2018-04-02T11:01:43.443Z,13.24
2018-04-02T11:02:43.435Z,13.22
2018-04-02T11:03:43.405Z,13.21
2018-04-02T11:04:43.410Z,13.25
2018-04-02T11:05:43.408Z,13.36
2018-04-02T11:06:43.349Z,13.33
2018-04-02T11:07:43.332Z,13.32
2018-04-02T11:08:43.350Z,13.33
2018-04-02T11:09:43.313Z,13.15
2018-04-02T11:10:43.319Z,12.88
2018-04-02T11:11:43.294Z,12.78
2018-04-02T11:12:43.268Z,12.92
2018-04-02T11:13:43.262Z,13.17
2018-04-02T11:14:43.244Z,13.20
2018-04-02T11:15:43.225Z,13.30
2018-04-02T11:16:43.244Z,13.40
2018-04-02T11:17:43.183Z,13.52
2018-04-02T11:18:43.178Z,13.76
2018-04-02T11:19:43.163Z,13.83
2018-04-02T11:20:43.153Z,13.95
2018-04-02T11:21:43.125Z,14.02
2018-04-02T11:22:43.118Z,13.98
2018-04-02T11:23:43.163Z,14.06
2018-04-02T11:24:43.086Z,14.01
2018-04-02T11:25:43.071Z,14.13
2018-04-02T11:26:43.100Z,14.27
2018-04-02T11:27:43.036Z,14.28
2018-04-02T11:28:43.055Z,14.38
2018-04-02T11:29:43.030Z,14.44
2018-04-02T11:30:43.034Z,14.65
2018-04-02T11:31:42.993Z,14.81
2018-04-02T11:32:42.986Z,14.68
2018-04-02T11:33:42.952Z,14.53
2018-04-02T11:34:42.943Z,14.52
2018-04-02T11:35:42.928Z,14.42
2018-04-02T11:36:42.934Z,14.28
2018-04-02T11:37:42.900Z,14.12
2018-04-02T11:38:42.901Z,13.98
2018-04-02T11:39:42.870Z,13.88
2018-04-02T11:40:42.857Z,13.74
2018-04-02T11:41:42.837Z,13.62
2018-04-02T11:42:42.855Z,13.52
2018-04-02T11:43:42.835Z,13.47
2018-04-02T11:44:42.789Z,13.49
2018-04-02T11:45:42.781Z,13.46
2018-04-02T11:46:42.805Z,13.61
2018-04-02T11:47:42.781Z,13.63
2018-04-02T11:48:42.732Z,13.59
2018-04-02T11:49:42.762Z,13.59
2018-04-02T11:50:42.710Z,13.62
2018-04-02T11:51:42.693Z,13.47
2018-04-02T11:52:42.701Z,13.36
2018-04-02T11:53:42.656Z,13.52
2018-04-02T11:54:42.652Z,13.63
2018-04-02T11:55:42.655Z,13.89
2018-04-02T11:56:42.643Z,13.99
2018-04-02T11:57:42.616Z,14.02
2018-04-02T11:58:42.641Z,14.06
2018-04-02T11:59:42.574Z,13.99
2018-04-02T12:00:42.564Z,14.12
2018-04-02T12:01:42.592Z,14.14
2018-04-02T12:02:42.543Z,14.16
2018-04-02T12:03:42.537Z,14.01
2018-04-02T12:04:42.498Z,14.10
2018-04-02T12:05:42.495Z,14.02
2018-04-02T12:06:42.482Z,14.04
2018-04-02T12:07:42.463Z,13.98
2018-04-02T12:08:42.437Z,13.98
2018-04-02T12:09:42.425Z,13.89
2018-04-02T12:10:42.421Z,13.79
2018-04-02T12:11:42.415Z,13.83
2018-04-02T12:12:42.378Z,13.83
2018-04-02T12:13:42.386Z,13.98
2018-04-02T12:14:42.363Z,14.07
2018-04-02T12:15:42.359Z,14.14
2018-04-02T12:16:42.329Z,14.25
2018-04-02T12:17:42.311Z,14.38
2018-04-02T12:18:42.318Z,14.42
2018-04-02T12:19:42.283Z,14.47
2018-04-02T12:20:42.282Z,14.49
2018-04-02T12:21:42.249Z,14.46
2018-04-02T12:22:42.305Z,14.50
2018-04-02T12:23:42.226Z,14.47
2018-04-02T12:24:42.216Z,14.67
2018-04-02T12:25:42.197Z,14.65
2018-04-02T12:26:42.185Z,14.61
2018-04-02T12:27:42.157Z,14.60
2018-04-02T12:28:42.203Z,14.61
2018-04-02T12:29:42.166Z,14.78
2018-04-02T12:30:42.117Z,14.86
2018-04-02T12:31:42.109Z,14.99
2018-04-02T12:32:42.113Z,15.03
2018-04-02T12:33:42.092Z,15.08
2018-04-02T12:34:42.079Z,15.06
2018-04-02T12:35:42.094Z,15.11
2018-04-02T12:36:42.091Z,15.06
2018-04-02T12:37:42.020Z,14.88
2018-04-02T12:38:42.025Z,15.02
2018-04-02T12:39:42.000Z,14.86
2018-04-02T12:40:42.588Z,14.68
2018-04-02T12:41:41.972Z,14.68
2018-04-02T12:42:41.952Z,14.78
2018-04-02T12:43:41.956Z,14.87
2018-04-02T12:44:41.936Z,14.91
2018-04-02T12:45:41.912Z,14.93
2018-04-02T12:46:41.899Z,14.91
2018-04-02T12:47:41.880Z,14.88
2018-04-02T12:48:41.872Z,14.99
2018-04-02T12:49:41.855Z,15.01
2018-04-02T12:50:41.846Z,15.21
2018-04-02T12:51:41.854Z,15.24
2018-04-02T12:52:41.834Z,15.26
2018-04-02T12:53:41.829Z,15.15
2018-04-02T12:54:41.786Z,15.17
2018-04-02T12:55:41.820Z,15.19
2018-04-02T12:56:41.760Z,15.19
2018-04-02T12:57:41.804Z,15.23
2018-04-02T12:58:41.737Z,15.24
2018-04-02T12:59:41.717Z,15.39
2018-04-02T13:00:41.701Z,15.28
2018-04-02T13:01:41.682Z,15.36
2018-04-02T13:02:41.686Z,15.39
2018-04-02T13:03:41.682Z,15.48
2018-04-02T13:04:41.697Z,15.54
2018-04-02T13:05:41.659Z,15.59
2018-04-02T13:06:41.626Z,15.63
2018-04-02T13:07:41.608Z,15.63
2018-04-02T13:08:41.605Z,15.66